createdAt,value
2023-05-24T00:00:25.118Z,44.19
2023-05-24T00:01:25.129Z,44.15
2023-05-24T00:02:25.206Z,44.08
2023-05-24T00:03:25.360Z,44.06
2023-05-24T00:04:25.571Z,44.04
2023-05-24T00:05:25.258Z,43.98
2023-05-24T00:06:25.288Z,43.98
2023-05-24T00:07:25.315Z,43.95
2023-05-24T00:08:25.352Z,43.93
2023-05-24T00:09:25.386Z,43.94
2023-05-24T00:10:25.447Z,43.93
2023-05-24T00:11:25.491Z,43.92
2023-05-24T00:12:25.552Z,43.92
2023-05-24T00:13:25.613Z,43.88
2023-05-24T00:14:25.659Z,43.91
2023-05-24T00:15:25.695Z,43.89
2023-05-24T00:16:25.798Z,43.89
2023-05-24T00:17:25.827Z,43.89
2023-05-24T00:18:25.874Z,43.88
2023-05-24T00:19:25.968Z,43.86
2023-05-24T00:20:26.011Z,43.88
2023-05-24T00:21:26.039Z,43.91
2023-05-24T00:22:26.169Z,43.89
2023-05-24T00:23:26.141Z,43.88
2023-05-24T00:24:26.209Z,43.89
2023-05-24T00:25:26.255Z,43.88
2023-05-24T00:26:26.315Z,43.86
2023-05-24T00:27:26.365Z,43.87
2023-05-24T00:28:26.407Z,43.88
2023-05-24T00:29:26.475Z,43.87
2023-05-24T00:30:26.489Z,43.87
2023-05-24T00:31:26.581Z,43.87
2023-05-24T00:32:26.658Z,43.86
2023-05-24T00:33:26.674Z,43.87
2023-05-24T00:34:26.758Z,43.87
2023-05-24T00:35:26.794Z,43.87
2023-05-24T00:36:26.857Z,43.87
2023-05-24T00:37:26.911Z,43.86
2023-05-24T00:38:26.970Z,43.86
2023-05-24T00:39:27.026Z,43.87
2023-05-24T00:40:27.087Z,43.88
2023-05-24T00:41:27.146Z,43.88
2023-05-24T00:42:27.208Z,43.89
2023-05-24T00:43:27.267Z,43.85
2023-05-24T00:44:27.326Z,43.84
2023-05-24T00:45:27.403Z,43.88
2023-05-24T00:46:27.495Z,43.88
2023-05-24T00:47:27.551Z,43.85
2023-05-24T00:48:27.561Z,43.87
2023-05-24T00:49:27.615Z,43.87
2023-05-24T00:50:27.692Z,43.84
2023-05-24T00:51:27.739Z,43.86
2023-05-24T00:52:27.785Z,43.88
2023-05-24T00:53:27.855Z,43.85
2023-05-24T00:54:27.948Z,43.84
2023-05-24T00:55:27.961Z,43.84
2023-05-24T00:56:28.042Z,43.84
2023-05-24T00:57:28.086Z,43.84
2023-05-24T00:58:28.139Z,43.85
2023-05-24T00:59:28.200Z,43.85
2023-05-24T01:00:28.253Z,43.84
2023-05-24T01:01:28.363Z,43.85
2023-05-24T01:02:28.455Z,43.82
2023-05-24T01:03:28.553Z,43.87
2023-05-24T01:04:28.506Z,43.85
2023-05-24T01:05:28.573Z,43.82
2023-05-24T01:06:28.642Z,43.83
2023-05-24T01:07:28.694Z,43.85
2023-05-24T01:08:28.757Z,43.85
2023-05-24T01:09:28.830Z,43.82
2023-05-24T01:10:28.888Z,43.82
2023-05-24T01:11:28.941Z,43.83
2023-05-24T01:12:29.009Z,43.82
2023-05-24T01:13:29.074Z,43.82
2023-05-24T01:14:29.572Z,43.82
2023-05-24T01:15:29.224Z,43.83
2023-05-24T01:16:29.333Z,43.83
2023-05-24T01:17:29.365Z,43.83
2023-05-24T01:18:29.382Z,43.85
2023-05-24T01:19:29.438Z,43.86
2023-05-24T01:20:29.546Z,43.84
2023-05-24T01:21:29.614Z,43.85
2023-05-24T01:22:29.611Z,43.82
2023-05-24T01:23:29.678Z,43.85
2023-05-24T01:24:29.740Z,43.84
2023-05-24T01:25:29.857Z,43.82
2023-05-24T01:26:29.871Z,43.83
2023-05-24T01:27:29.929Z,43.85
2023-05-24T01:28:30.013Z,43.83
2023-05-24T01:29:30.047Z,43.84
2023-05-24T01:30:30.126Z,43.86
2023-05-24T01:31:30.232Z,43.84
2023-05-24T01:32:30.286Z,43.84
2023-05-24T01:33:30.328Z,43.88
2023-05-24T01:34:30.374Z,43.84
2023-05-24T01:35:30.422Z,43.82
2023-05-24T01:36:30.489Z,43.83
2023-05-24T01:37:30.537Z,43.84
2023-05-24T01:38:30.570Z,43.84
2023-05-24T01:39:30.620Z,43.82
2023-05-24T01:40:30.665Z,43.83
2023-05-24T01:41:30.732Z,43.84
2023-05-24T01:42:30.782Z,43.85
2023-05-24T01:43:30.834Z,43.84
2023-05-24T01:44:30.888Z,43.84
2023-05-24T01:45:30.949Z,43.83
2023-05-24T01:46:31.054Z,43.83
2023-05-24T01:47:31.056Z,43.81
2023-05-24T01:48:31.086Z,43.80
2023-05-24T01:49:31.171Z,43.81
2023-05-24T01:50:31.199Z,43.83
2023-05-24T01:51:31.239Z,43.80
2023-05-24T01:52:31.328Z,43.80
2023-05-24T01:53:31.344Z,43.80
2023-05-24T01:54:31.394Z,43.80
2023-05-24T01:55:31.438Z,43.79
2023-05-24T01:56:31.480Z,43.81
2023-05-24T01:57:31.527Z,43.78
2023-05-24T01:58:31.609Z,43.79
2023-05-24T01:59:31.638Z,43.79
2023-05-24T02:00:31.698Z,43.79
2023-05-24T02:01:31.973Z,43.79
2023-05-24T02:02:31.830Z,43.81
2023-05-24T02:03:31.849Z,43.81
2023-05-24T02:04:31.872Z,43.81
2023-05-24T02:05:32.378Z,43.79
2023-05-24T02:06:31.980Z,43.81
2023-05-24T02:07:32.012Z,43.81
2023-05-24T02:08:32.050Z,43.80
2023-05-24T02:09:33.086Z,43.80
2023-05-24T02:10:32.140Z,43.79
2023-05-24T02:11:32.184Z,43.80
2023-05-24T02:12:32.225Z,43.79
2023-05-24T02:13:32.264Z,43.78
2023-05-24T02:14:32.297Z,43.77
2023-05-24T02:15:32.334Z,43.79
2023-05-24T02:16:32.454Z,43.78
2023-05-24T02:17:32.481Z,43.77
2023-05-24T02:18:32.477Z,43.79
2023-05-24T02:19:32.503Z,43.77
2023-05-24T02:20:32.642Z,43.76
2023-05-24T02:21:32.648Z,43.76
2023-05-24T02:22:32.654Z,43.78
2023-05-24T02:23:32.710Z,43.78
2023-05-24T02:24:32.744Z,43.76
2023-05-24T02:25:32.797Z,43.76
2023-05-24T02:26:32.863Z,43.77
2023-05-24T02:27:32.912Z,43.78
2023-05-24T02:28:32.951Z,43.78
2023-05-24T02:29:33.004Z,43.77
2023-05-24T02:30:33.045Z,43.78
2023-05-24T02:31:33.262Z,43.79
2023-05-24T02:32:33.228Z,43.79
2023-05-24T02:33:33.178Z,43.78
2023-05-24T02:34:33.222Z,43.76
2023-05-24T02:35:33.280Z,43.74
2023-05-24T02:36:33.324Z,43.77
2023-05-24T02:37:33.401Z,43.78
2023-05-24T02:38:33.418Z,43.78
2023-05-24T02:39:33.495Z,43.77
2023-05-24T02:40:33.543Z,43.78
2023-05-24T02:41:33.605Z,43.77
2023-05-24T02:42:33.616Z,43.78
2023-05-24T02:43:33.655Z,43.78
2023-05-24T02:44:33.713Z,43.77
2023-05-24T02:45:33.738Z,43.76
2023-05-24T02:46:33.819Z,43.74
2023-05-24T02:47:33.873Z,43.75
2023-05-24T02:48:33.859Z,43.76
2023-05-24T02:49:33.904Z,43.78
2023-05-24T02:50:33.970Z,43.76
2023-05-24T02:51:34.003Z,43.74
2023-05-24T02:52:34.047Z,43.74
2023-05-24T02:53:34.108Z,43.74
2023-05-24T02:54:34.143Z,43.74
2023-05-24T02:55:34.163Z,43.74
2023-05-24T02:56:34.217Z,43.76
2023-05-24T02:57:34.292Z,43.73
2023-05-24T02:58:34.296Z,43.77
2023-05-24T02:59:34.332Z,43.73
2023-05-24T03:00:34.383Z,43.73
2023-05-24T03:01:35.229Z,43.74
2023-05-24T03:02:34.543Z,43.73
2023-05-24T03:03:34.696Z,43.73
2023-05-24T03:04:34.601Z,43.73
2023-05-24T03:05:34.646Z,43.72
2023-05-24T03:06:34.688Z,43.73
2023-05-24T03:07:34.759Z,43.75
2023-05-24T03:08:34.859Z,43.73
2023-05-24T03:09:34.885Z,43.71
2023-05-24T03:10:34.911Z,43.73
2023-05-24T03:11:34.971Z,43.77
2023-05-24T03:12:35.027Z,43.74
2023-05-24T03:13:35.063Z,43.72
2023-05-24T03:14:35.100Z,43.72
2023-05-24T03:15:35.148Z,43.71
2023-05-24T03:16:35.307Z,43.75
2023-05-24T03:17:35.282Z,43.73
2023-05-24T03:18:35.274Z,43.72
2023-05-24T03:19:35.327Z,43.74
2023-05-24T03:20:35.439Z,43.72
2023-05-24T03:21:35.416Z,43.75
2023-05-24T03:22:35.464Z,43.70
2023-05-24T03:23:35.507Z,43.74
2023-05-24T03:24:35.557Z,43.74
2023-05-24T03:25:35.626Z,43.75
2023-05-24T03:26:35.651Z,43.70
2023-05-24T03:27:35.700Z,43.72
2023-05-24T03:28:35.767Z,43.72
2023-05-24T03:29:35.803Z,43.77
2023-05-24T03:30:35.856Z,43.74
2023-05-24T03:31:35.947Z,43.71
2023-05-24T03:32:35.988Z,43.70
2023-05-24T03:33:36.020Z,43.76
2023-05-24T03:34:36.063Z,43.76
2023-05-24T03:35:36.106Z,43.75
2023-05-24T03:36:36.147Z,43.75
2023-05-24T03:37:36.203Z,43.72
2023-05-24T03:38:36.244Z,43.74
2023-05-24T03:39:36.335Z,43.70
2023-05-24T03:40:36.409Z,43.70
2023-05-24T03:41:36.450Z,43.73
2023-05-24T03:42:36.469Z,43.71
2023-05-24T03:43:36.512Z,43.71
2023-05-24T03:44:36.560Z,43.70
2023-05-24T03:45:39.687Z,43.73
2023-05-24T03:46:36.651Z,43.73
2023-05-24T03:47:36.657Z,43.71
2023-05-24T03:48:36.590Z,43.72
2023-05-24T03:49:36.599Z,43.68
2023-05-24T03:50:36.594Z,43.70
2023-05-24T03:51:36.563Z,43.71
2023-05-24T03:52:36.564Z,43.73
2023-05-24T03:53:36.554Z,43.70
2023-05-24T03:54:36.558Z,43.72
2023-05-24T03:55:36.536Z,43.71
2023-05-24T03:56:36.531Z,43.73
2023-05-24T03:57:36.544Z,43.75
2023-05-24T03:58:36.517Z,43.72
2023-05-24T03:59:36.832Z,43.72
2023-05-24T04:00:36.532Z,43.70
2023-05-24T04:01:36.497Z,43.70
2023-05-24T04:02:36.568Z,43.69
2023-05-24T04:03:36.551Z,43.72
2023-05-24T04:04:36.543Z,43.72
2023-05-24T04:05:36.608Z,43.70
2023-05-24T04:06:36.675Z,43.72
2023-05-24T04:07:36.684Z,43.70
2023-05-24T04:08:36.745Z,43.69
2023-05-24T04:09:36.782Z,43.71
2023-05-24T04:10:36.848Z,43.72
2023-05-24T04:11:36.865Z,43.71
2023-05-24T04:12:36.895Z,43.71
2023-05-24T04:13:36.956Z,43.69
2023-05-24T04:14:36.978Z,43.72
2023-05-24T04:15:37.037Z,43.71
2023-05-24T04:16:37.130Z,43.70
2023-05-24T04:17:37.293Z,43.70
2023-05-24T04:18:37.293Z,43.70
2023-05-24T04:19:37.164Z,43.69
2023-05-24T04:20:37.270Z,43.71
2023-05-24T04:21:37.204Z,43.72
2023-05-24T04:22:37.234Z,43.66
2023-05-24T04:23:37.267Z,43.70
2023-05-24T04:24:37.324Z,43.69
2023-05-24T04:25:37.362Z,43.68
2023-05-24T04:26:37.363Z,43.74
2023-05-24T04:27:37.441Z,43.69
2023-05-24T04:28:37.450Z,43.67
2023-05-24T04:29:37.535Z,43.67
2023-05-24T04:30:37.553Z,43.71
2023-05-24T04:31:37.720Z,43.66
2023-05-24T04:32:37.688Z,43.66
2023-05-24T04:33:37.719Z,43.69
2023-05-24T04:34:37.751Z,43.69
2023-05-24T04:35:37.795Z,43.71
2023-05-24T04:36:37.853Z,43.69
2023-05-24T04:37:37.903Z,43.68
2023-05-24T04:38:37.952Z,43.70
2023-05-24T04:39:38.023Z,43.65
2023-05-24T04:40:38.047Z,43.66
2023-05-24T04:41:38.085Z,43.67
2023-05-24T04:42:38.137Z,43.69
2023-05-24T04:43:38.191Z,43.70
2023-05-24T04:44:38.243Z,43.70
2023-05-24T04:45:38.316Z,43.70
2023-05-24T04:46:38.334Z,43.69
2023-05-24T04:47:38.400Z,43.69
2023-05-24T04:48:38.403Z,43.68
2023-05-24T04:49:38.446Z,43.68
2023-05-24T04:50:38.489Z,43.70
2023-05-24T04:51:38.757Z,43.67
2023-05-24T04:52:38.584Z,43.66
2023-05-24T04:53:38.635Z,43.69
2023-05-24T04:54:38.697Z,43.67
2023-05-24T04:55:38.738Z,43.66
2023-05-24T04:56:38.903Z,43.69
2023-05-24T04:57:38.834Z,43.70
2023-05-24T04:58:39.507Z,43.66
2023-05-24T04:59:38.942Z,43.66
2023-05-24T05:00:39.043Z,43.64
2023-05-24T05:01:39.091Z,43.67
2023-05-24T05:02:39.157Z,43.69
2023-05-24T05:03:39.209Z,43.67
2023-05-24T05:04:39.211Z,43.69
2023-05-24T05:05:39.252Z,43.67
2023-05-24T05:06:39.302Z,43.69
2023-05-24T05:07:39.353Z,43.69
2023-05-24T05:08:39.411Z,43.67
2023-05-24T05:09:39.475Z,43.69
2023-05-24T05:10:39.571Z,43.67
2023-05-24T05:11:39.567Z,43.65
2023-05-24T05:12:39.608Z,43.63
2023-05-24T05:13:39.657Z,43.67
2023-05-24T05:14:39.703Z,43.66
2023-05-24T05:15:41.605Z,43.65
2023-05-24T05:16:39.757Z,43.68
2023-05-24T05:17:39.787Z,43.68
2023-05-24T05:18:39.716Z,43.68
2023-05-24T05:19:39.730Z,43.90
2023-05-24T05:20:40.341Z,43.94
2023-05-24T05:21:39.707Z,43.92
2023-05-24T05:22:39.678Z,43.86
2023-05-24T05:23:39.696Z,43.83
2023-05-24T05:24:39.684Z,43.81
2023-05-24T05:25:39.701Z,43.81
2023-05-24T05:26:39.707Z,43.86
2023-05-24T05:27:40.200Z,43.98
2023-05-24T05:28:39.846Z,43.92
2023-05-24T05:29:39.636Z,43.94
2023-05-24T05:30:39.961Z,43.97
2023-05-24T05:31:39.674Z,44.01
2023-05-24T05:32:39.653Z,44.15
2023-05-24T05:33:39.674Z,44.23
2023-05-24T05:34:39.814Z,44.34
2023-05-24T05:35:39.742Z,44.35
2023-05-24T05:36:40.192Z,44.41
2023-05-24T05:37:40.688Z,44.41
2023-05-24T05:38:39.864Z,44.46
2023-05-24T05:39:39.948Z,44.45
2023-05-24T05:40:40.164Z,44.45
2023-05-24T05:41:40.723Z,44.55
2023-05-24T05:42:40.073Z,44.60
2023-05-24T05:43:40.137Z,44.55
2023-05-24T05:44:40.701Z,44.60
2023-05-24T05:45:40.308Z,44.62
2023-05-24T05:46:40.776Z,44.62
2023-05-24T05:47:40.407Z,44.63
2023-05-24T05:48:40.609Z,44.68
2023-05-24T05:49:43.731Z,44.71
2023-05-24T05:50:40.668Z,44.74
2023-05-24T05:51:40.883Z,44.79
2023-05-24T05:52:40.491Z,44.80
2023-05-24T05:53:43.683Z,44.88
2023-05-24T05:54:43.938Z,44.86
2023-05-24T05:55:40.463Z,44.98
2023-05-24T05:57:56.084Z,45.31
2023-05-24T05:58:43.648Z,45.27
2023-05-24T06:00:47.902Z,45.16
2023-05-24T06:04:47.885Z,45.00
2023-05-24T06:05:40.389Z,44.98
2023-05-24T06:07:12.530Z,44.94
2023-05-24T06:07:40.389Z,44.94
2023-05-24T06:08:40.382Z,44.96
2023-05-24T06:09:40.388Z,45.01
2023-05-24T06:10:40.639Z,45.01
2023-05-24T06:11:40.717Z,44.96
2023-05-24T06:12:40.712Z,44.98
2023-05-24T06:13:40.343Z,44.98
2023-05-24T06:14:40.330Z,44.97
2023-05-24T06:15:40.328Z,44.97
2023-05-24T06:16:40.341Z,44.92
2023-05-24T06:17:40.356Z,44.92
2023-05-24T06:18:45.062Z,44.92
2023-05-24T06:19:40.295Z,44.92
2023-05-24T06:20:40.457Z,44.93
2023-05-24T06:21:40.296Z,44.89
2023-05-24T06:22:40.717Z,44.88
2023-05-24T06:23:40.271Z,44.89
2023-05-24T06:24:40.711Z,44.84
2023-05-24T06:25:40.262Z,44.89
2023-05-24T06:26:40.281Z,44.87
2023-05-24T06:27:40.250Z,44.84
2023-05-24T06:29:12.042Z,44.85
2023-05-24T06:29:40.292Z,44.85
2023-05-24T06:30:40.390Z,44.86
2023-05-24T06:31:40.250Z,44.80
2023-05-24T06:32:40.304Z,44.81
2023-05-24T06:33:42.668Z,44.82
2023-05-24T06:34:40.193Z,44.80
2023-05-24T06:35:40.188Z,44.82
2023-05-24T06:36:40.248Z,44.76
2023-05-24T06:37:40.207Z,44.76
2023-05-24T06:38:40.175Z,44.77
2023-05-24T06:39:40.221Z,44.78
2023-05-24T06:40:40.440Z,44.76
2023-05-24T06:41:40.217Z,44.74
2023-05-24T06:42:40.151Z,44.73
2023-05-24T06:43:40.146Z,44.74
2023-05-24T06:44:40.138Z,44.74
2023-05-24T06:45:41.134Z,44.73
2023-05-24T06:46:40.252Z,44.68
2023-05-24T06:47:40.175Z,44.68
2023-05-24T06:48:43.467Z,44.70
2023-05-24T06:49:40.125Z,44.70
2023-05-24T06:50:42.444Z,44.69
2023-05-24T06:51:40.249Z,44.70
2023-05-24T06:52:40.110Z,44.69
2023-05-24T06:53:40.080Z,44.69
2023-05-24T06:54:40.065Z,44.69
2023-05-24T06:55:40.064Z,44.66
2023-05-24T06:56:41.229Z,44.69
2023-05-24T06:57:40.040Z,44.68
2023-05-24T06:58:40.075Z,44.68
2023-05-24T06:59:40.025Z,44.70
2023-05-24T07:01:12.094Z,44.70
2023-05-24T07:01:40.048Z,44.64
2023-05-24T07:02:40.080Z,44.63
2023-05-24T07:03:40.006Z,44.57
2023-05-24T07:04:40.202Z,44.58
2023-05-24T07:05:39.993Z,44.62
2023-05-24T07:06:40.238Z,44.64
2023-05-24T07:07:40.232Z,44.60
2023-05-24T07:08:39.996Z,44.56
2023-05-24T07:09:40.051Z,44.52
2023-05-24T07:10:40.047Z,44.51
2023-05-24T07:11:40.266Z,44.44
2023-05-24T07:12:39.955Z,44.39
2023-05-24T07:13:40.236Z,44.38
2023-05-24T07:14:39.918Z,44.45
2023-05-24T07:15:39.916Z,44.46
2023-05-24T07:16:39.939Z,44.48
2023-05-24T07:17:40.292Z,44.47
2023-05-24T07:18:39.881Z,44.42
2023-05-24T07:19:39.875Z,44.45
2023-05-24T07:20:40.055Z,44.42
2023-05-24T07:21:40.265Z,44.49
2023-05-24T07:22:39.875Z,44.45
2023-05-24T07:23:40.361Z,44.46
2023-05-24T07:24:40.094Z,44.49
2023-05-24T07:25:39.830Z,44.48
2023-05-24T07:26:39.822Z,44.43
2023-05-24T07:27:40.238Z,44.46
2023-05-24T07:28:39.924Z,44.39
2023-05-24T07:29:39.973Z,44.38
2023-05-24T07:30:40.011Z,44.39
2023-05-24T07:31:41.139Z,44.30
2023-05-24T07:32:40.210Z,44.32
2023-05-24T07:33:42.281Z,44.32
2023-05-24T07:34:40.148Z,44.40
2023-05-24T07:35:43.328Z,44.55
2023-05-24T07:36:40.102Z,44.69
2023-05-24T07:37:48.032Z,44.77
2023-05-24T07:38:43.683Z,44.83
2023-05-24T07:39:40.223Z,44.93
2023-05-24T07:40:55.921Z,44.99
2023-05-24T07:41:40.411Z,45.01
2023-05-24T07:42:40.383Z,45.14
2023-05-24T07:43:41.309Z,45.19
2023-05-24T07:44:47.770Z,45.29
2023-05-24T07:45:43.501Z,45.33
2023-05-24T07:46:40.185Z,45.43
2023-05-24T07:47:43.482Z,45.56
2023-05-24T07:48:40.040Z,45.43
2023-05-24T07:49:40.287Z,45.07
2023-05-24T07:50:40.148Z,45.01
2023-05-24T07:51:40.030Z,44.77
2023-05-24T07:52:40.028Z,44.77
2023-05-24T07:53:47.487Z,44.81
2023-05-24T07:54:40.258Z,45.04
2023-05-24T07:55:41.555Z,44.93
2023-05-24T07:59:40.474Z,45.04
2023-05-24T08:00:40.252Z,44.89
2023-05-24T08:01:40.260Z,44.93
2023-05-24T08:02:43.491Z,45.05
2023-05-24T08:03:40.620Z,44.94
2023-05-24T08:04:40.184Z,45.04
2023-05-24T08:05:40.403Z,44.79
2023-05-24T08:06:40.287Z,44.83
2023-05-24T08:07:40.270Z,44.90
2023-05-24T08:08:40.158Z,44.89
2023-05-24T08:09:40.275Z,45.12
2023-05-24T08:10:40.275Z,44.96
2023-05-24T08:11:40.301Z,45.13
2023-05-24T08:12:40.149Z,45.06
2023-05-24T08:13:40.224Z,45.14
2023-05-24T08:14:40.117Z,45.10
2023-05-24T08:15:40.499Z,45.20
2023-05-24T08:16:40.378Z,45.04
2023-05-24T08:17:40.191Z,45.20
2023-05-24T08:18:40.135Z,44.88
2023-05-24T08:19:40.126Z,45.12
2023-05-24T08:20:40.659Z,45.09
2023-05-24T08:21:40.277Z,44.91
2023-05-24T08:22:40.064Z,45.00
2023-05-24T08:23:40.066Z,45.02
2023-05-24T08:24:40.049Z,45.08
2023-05-24T08:25:40.054Z,44.97
2023-05-24T08:26:40.041Z,45.01
2023-05-24T08:27:40.062Z,45.02
2023-05-24T08:28:40.198Z,45.01
2023-05-24T08:29:40.030Z,45.12
2023-05-24T08:30:40.032Z,45.04
2023-05-24T08:31:40.651Z,44.87
2023-05-24T08:32:40.032Z,44.90
2023-05-24T08:33:40.002Z,45.07
2023-05-24T08:34:40.003Z,45.01
2023-05-24T08:35:40.189Z,44.99
2023-05-24T08:36:40.286Z,45.14
2023-05-24T08:37:40.167Z,45.09
2023-05-24T08:38:40.228Z,45.11
2023-05-24T08:39:40.780Z,45.34
2023-05-24T08:40:40.780Z,45.03
2023-05-24T08:41:41.282Z,45.15
2023-05-24T08:42:40.343Z,44.88
2023-05-24T08:43:40.371Z,44.96
2023-05-24T08:44:43.581Z,44.54
2023-05-24T08:45:40.998Z,44.70
2023-05-24T08:46:41.450Z,44.83
2023-05-24T08:47:40.953Z,44.69
2023-05-24T08:48:41.356Z,44.73
2023-05-24T08:49:40.363Z,44.38
2023-05-24T08:50:40.791Z,44.29
2023-05-24T08:51:40.336Z,44.47
2023-05-24T08:52:47.729Z,44.43
2023-05-24T08:53:40.790Z,44.43
2023-05-24T08:54:40.309Z,44.33
2023-05-24T08:55:40.607Z,44.43
2023-05-24T08:56:40.306Z,44.43
2023-05-24T08:57:41.753Z,44.47
2023-05-24T08:58:40.414Z,44.33
2023-05-24T08:59:40.477Z,44.34
2023-05-24T09:00:40.545Z,44.38
2023-05-24T09:01:42.085Z,44.32
2023-05-24T09:02:40.751Z,44.49
2023-05-24T09:03:40.900Z,44.55
2023-05-24T09:04:40.793Z,44.57
2023-05-24T09:05:41.070Z,44.46
2023-05-24T09:06:40.894Z,44.62
2023-05-24T09:07:41.622Z,44.59
2023-05-24T09:08:43.633Z,44.71
2023-05-24T09:09:41.180Z,44.70
2023-05-24T09:10:53.116Z,44.65
2023-05-24T09:11:40.987Z,44.59
2023-05-24T09:12:40.976Z,44.62
2023-05-24T09:13:40.977Z,44.73
2023-05-24T09:14:41.297Z,44.59
2023-05-24T09:15:41.412Z,44.64
2023-05-24T09:16:40.965Z,44.47
2023-05-24T09:17:40.976Z,44.50
2023-05-24T09:18:40.943Z,44.65
2023-05-24T09:19:41.324Z,44.53
2023-05-24T09:20:41.142Z,44.47
2023-05-24T09:21:41.090Z,44.61
2023-05-24T09:22:42.100Z,44.46
2023-05-24T09:23:41.007Z,44.40
2023-05-24T09:24:41.075Z,44.67
2023-05-24T09:25:44.299Z,44.56
2023-05-24T09:26:41.294Z,44.32
2023-05-24T09:27:41.086Z,44.43
2023-05-24T09:28:41.084Z,44.42
2023-05-24T09:29:41.074Z,44.37
2023-05-24T09:30:42.311Z,44.55
2023-05-24T09:31:42.349Z,44.59
2023-05-24T09:32:41.122Z,44.10
2023-05-24T09:33:41.112Z,43.84
2023-05-24T09:34:41.143Z,44.36
2023-05-24T09:35:41.246Z,44.53
2023-05-24T09:36:41.306Z,44.58
2023-05-24T09:37:41.310Z,44.76
2023-05-24T09:38:41.319Z,44.68
2023-05-24T09:39:41.802Z,44.72
2023-05-24T09:40:44.606Z,44.75
2023-05-24T09:41:41.811Z,44.92
2023-05-24T09:42:41.341Z,44.75
2023-05-24T09:43:41.333Z,44.74
2023-05-24T09:44:41.328Z,44.95
2023-05-24T09:45:41.324Z,45.03
2023-05-24T09:46:41.877Z,44.93
2023-05-24T09:47:41.363Z,45.00
2023-05-24T09:48:41.293Z,44.89
2023-05-24T09:49:41.324Z,44.70
2023-05-24T09:50:41.529Z,44.71
2023-05-24T09:51:41.478Z,44.73
2023-05-24T09:52:41.276Z,44.92
2023-05-24T09:53:41.257Z,44.78
2023-05-24T09:54:41.309Z,44.78
2023-05-24T09:55:44.453Z,44.86
2023-05-24T09:56:41.335Z,44.79
2023-05-24T09:57:41.235Z,44.90
2023-05-24T09:58:41.220Z,44.90
2023-05-24T09:59:41.225Z,45.09
2023-05-24T10:00:41.646Z,45.12
2023-05-24T10:01:41.227Z,45.09
2023-05-24T10:02:51.855Z,45.07
2023-05-24T10:03:41.460Z,45.02
2023-05-24T10:04:41.289Z,45.04
2023-05-24T10:05:41.331Z,44.71
2023-05-24T10:06:41.324Z,44.81
2023-05-24T10:07:41.268Z,45.00
2023-05-24T10:08:41.320Z,44.84
2023-05-24T10:09:41.180Z,44.67
2023-05-24T10:10:41.269Z,44.61
2023-05-24T10:11:41.141Z,44.60
2023-05-24T10:12:41.317Z,44.66
2023-05-24T10:13:41.153Z,44.62
2023-05-24T10:14:41.111Z,44.67
2023-05-24T10:15:41.117Z,44.57
2023-05-24T10:16:41.156Z,44.75
2023-05-24T10:17:41.369Z,44.74
2023-05-24T10:18:41.086Z,44.67
2023-05-24T10:19:41.086Z,44.68
2023-05-24T10:20:42.161Z,44.77
2023-05-24T10:21:41.104Z,44.68
2023-05-24T10:22:41.327Z,44.78
2023-05-24T10:23:41.199Z,44.69
2023-05-24T10:24:41.197Z,44.83
2023-05-24T10:25:41.228Z,44.75
2023-05-24T10:26:41.353Z,44.66
2023-05-24T10:27:41.329Z,44.73
2023-05-24T10:28:41.669Z,44.78
2023-05-24T10:29:41.379Z,44.86
2023-05-24T10:30:41.432Z,44.83
2023-05-24T10:31:41.533Z,44.80
2023-05-24T10:32:41.876Z,44.75
2023-05-24T10:33:41.524Z,44.73
2023-05-24T10:34:41.548Z,44.63
2023-05-24T10:35:41.841Z,44.65
2023-05-24T10:36:41.650Z,44.61
2023-05-24T10:37:41.877Z,44.56
2023-05-24T10:38:41.735Z,44.53
2023-05-24T10:39:41.911Z,44.41
2023-05-24T10:40:41.822Z,44.55
2023-05-24T10:41:41.889Z,44.38
2023-05-24T10:42:41.890Z,44.29
2023-05-24T10:43:43.976Z,44.63
2023-05-24T10:44:41.940Z,44.71
2023-05-24T10:45:41.951Z,44.68
2023-05-24T10:46:41.985Z,44.77
2023-05-24T10:47:42.421Z,44.74
2023-05-24T10:48:41.922Z,44.80
2023-05-24T10:49:41.916Z,44.77
2023-05-24T10:50:42.374Z,44.78
2023-05-24T10:51:41.920Z,44.80
2023-05-24T10:52:41.901Z,44.80
2023-05-24T10:53:41.893Z,44.78
2023-05-24T10:54:52.653Z,44.89
2023-05-24T10:55:41.904Z,44.91
2023-05-24T10:56:41.862Z,45.01
2023-05-24T10:57:41.862Z,45.03
2023-05-24T10:58:41.995Z,45.05
2023-05-24T10:59:41.844Z,45.12
2023-05-24T11:00:41.835Z,45.13
2023-05-24T11:01:41.863Z,45.23
2023-05-24T11:02:41.880Z,45.28
2023-05-24T11:03:41.807Z,45.35
2023-05-24T11:04:41.825Z,45.40
2023-05-24T11:05:43.200Z,45.43
2023-05-24T11:06:41.788Z,45.57
2023-05-24T11:07:41.849Z,45.67
2023-05-24T11:08:41.777Z,45.68
2023-05-24T11:09:41.782Z,45.49
2023-05-24T11:10:43.121Z,45.24
2023-05-24T11:11:41.900Z,45.67
2023-05-24T11:12:41.903Z,45.79
2023-05-24T11:13:41.963Z,45.76
2023-05-24T11:14:41.971Z,45.61
2023-05-24T11:15:41.997Z,45.62
2023-05-24T11:16:42.503Z,45.64
2023-05-24T11:17:43.570Z,45.60
2023-05-24T11:18:42.364Z,45.58
2023-05-24T11:19:42.281Z,45.57
2023-05-24T11:20:42.687Z,45.55
2023-05-24T11:21:42.360Z,45.56
2023-05-24T11:22:42.421Z,45.53
2023-05-24T11:23:42.420Z,45.52
2023-05-24T11:24:42.488Z,45.57
2023-05-24T11:25:42.510Z,45.56
2023-05-24T11:26:42.552Z,45.52
2023-05-24T11:27:42.622Z,45.57
2023-05-24T11:28:42.651Z,45.56
2023-05-24T11:29:42.676Z,45.56
2023-05-24T11:30:42.964Z,45.55
2023-05-24T11:31:44.689Z,45.61
2023-05-24T11:32:42.833Z,45.63
2023-05-24T11:33:42.758Z,45.49
2023-05-24T11:34:42.861Z,45.64
2023-05-24T11:35:42.735Z,45.68
2023-05-24T11:36:42.733Z,45.57
2023-05-24T11:37:46.716Z,45.61
2023-05-24T11:38:42.723Z,45.60
2023-05-24T11:39:42.825Z,45.52
2023-05-24T11:40:42.922Z,45.45
2023-05-24T11:41:42.841Z,45.45
2023-05-24T11:42:42.682Z,45.41
2023-05-24T11:43:42.754Z,44.86
2023-05-24T11:44:42.777Z,44.37
2023-05-24T11:45:42.949Z,44.32
2023-05-24T11:46:42.884Z,44.18
2023-05-24T11:47:42.905Z,44.30
2023-05-24T11:48:42.869Z,44.28
2023-05-24T11:49:42.889Z,44.36
2023-05-24T11:50:49.397Z,44.46
2023-05-24T11:51:43.415Z,44.49
2023-05-24T11:52:42.910Z,44.51
2023-05-24T11:53:43.166Z,44.52
2023-05-24T11:54:43.371Z,44.88
2023-05-24T11:55:43.104Z,44.74
2023-05-24T11:56:42.874Z,44.54
2023-05-24T11:57:42.869Z,44.46
2023-05-24T11:58:42.868Z,44.90
2023-05-24T11:59:42.970Z,45.35
2023-05-24T12:00:50.252Z,44.60
2023-05-24T12:01:42.888Z,45.02
2023-05-24T12:02:42.935Z,46.78
2023-05-24T12:03:42.942Z,49.05
2023-05-24T12:04:42.945Z,49.90
2023-05-24T12:05:43.816Z,50.74
2023-05-24T12:06:42.900Z,50.80
2023-05-24T12:07:42.815Z,50.57
2023-05-24T12:08:42.804Z,50.43
2023-05-24T12:09:42.808Z,50.06
2023-05-24T12:10:43.197Z,49.68
2023-05-24T12:11:43.480Z,49.58
2023-05-24T12:12:46.015Z,49.47
2023-05-24T12:13:42.770Z,49.30
2023-05-24T12:14:42.773Z,49.03
2023-05-24T12:15:42.869Z,48.85
2023-05-24T12:16:42.751Z,48.85
2023-05-24T12:17:42.798Z,48.82
2023-05-24T12:18:55.094Z,48.82
2023-05-24T12:19:42.726Z,48.63
2023-05-24T12:20:43.002Z,48.73
2023-05-24T12:21:42.757Z,48.56
2023-05-24T12:22:42.713Z,48.54
2023-05-24T12:23:42.713Z,48.44
2023-05-24T12:24:42.716Z,48.36
2023-05-24T12:25:42.684Z,48.44
2023-05-24T12:26:42.960Z,48.39
2023-05-24T12:27:42.670Z,48.41
2023-05-24T12:28:42.671Z,48.53
2023-05-24T12:29:42.882Z,48.53
2023-05-24T12:30:42.870Z,48.53
2023-05-24T12:31:43.107Z,48.57
2023-05-24T12:32:42.674Z,48.60
2023-05-24T12:33:42.622Z,48.75
2023-05-24T12:34:42.762Z,48.86
2023-05-24T12:35:42.609Z,48.95
2023-05-24T12:36:42.634Z,48.98
2023-05-24T12:37:42.595Z,49.10
2023-05-24T12:38:42.593Z,49.25
2023-05-24T12:39:43.424Z,49.17
2023-05-24T12:40:42.861Z,49.29
2023-05-24T12:41:42.710Z,49.44
2023-05-24T12:42:42.684Z,49.47
2023-05-24T12:43:42.702Z,49.61
2023-05-24T12:44:42.743Z,49.77
2023-05-24T12:45:42.700Z,49.81
2023-05-24T12:46:42.740Z,49.77
2023-05-24T12:47:42.836Z,49.87
2023-05-24T12:48:42.700Z,49.88
2023-05-24T12:49:42.690Z,49.90
2023-05-24T12:50:42.960Z,49.97
2023-05-24T12:51:42.769Z,49.97
2023-05-24T12:52:42.815Z,49.96
2023-05-24T12:53:42.874Z,50.06
2023-05-24T12:54:42.919Z,50.13
2023-05-24T12:55:43.010Z,50.19
2023-05-24T12:56:43.127Z,49.75
2023-05-24T12:57:43.135Z,49.87
2023-05-24T12:58:43.160Z,50.28
2023-05-24T12:59:43.199Z,50.12
2023-05-24T13:00:43.515Z,49.97